Terminal Aerodrome Forecast
Issued by NWS

Home | Current Version | Previous Version | Text Only | Print | Product List | Glossary On
Versions: 1 2 3 4 5 6 7 8 9 10 11 12 13
000
FTUS46 KSEW 221730
TAFHQM
TAF
KHQM 221730Z 2218/2318 24006KT P6SM VCSH SCT025 SCT035
      TEMPO 2218/2222 5SM -SHRA BR SCT018 BKN025 OVC035
     FM230000 33005KT P6SM SKC
     FM231300 VRB04KT P6SM SCT012 BKN025=

USA.gov is the U.S. government's official web portal to all federal, state and local government web resources and services.